createdAt,value
2018-07-08T00:01:13.531Z,21.80
2018-07-08T00:03:42.117Z,21.70
2018-07-08T00:06:10.415Z,21.60
2018-07-08T00:08:39.468Z,21.60
2018-07-08T00:11:07.908Z,21.50
2018-07-08T00:13:36.272Z,21.40
2018-07-08T00:16:04.812Z,21.40
2018-07-08T00:18:33.156Z,21.30
2018-07-08T00:21:01.503Z,21.30
2018-07-08T00:23:30.221Z,21.30
2018-07-08T00:25:59.405Z,21.20
2018-07-08T00:28:27.790Z,21.20
2018-07-08T00:30:56.139Z,21.10
2018-07-08T00:33:24.605Z,21.10
2018-07-08T00:35:53.112Z,21.00
2018-07-08T00:38:22.342Z,21.00
2018-07-08T00:40:50.695Z,20.90
2018-07-08T00:43:19.062Z,20.90
2018-07-08T00:45:47.521Z,20.80
2018-07-08T00:48:15.908Z,20.70
2018-07-08T00:50:44.204Z,20.70
2018-07-08T00:53:12.529Z,20.60
2018-07-08T00:55:40.866Z,20.60
2018-07-08T00:58:09.107Z,20.60
2018-07-08T01:00:38.425Z,20.50
2018-07-08T01:03:07.783Z,20.50
2018-07-08T01:05:36.202Z,20.50
2018-07-08T01:08:04.772Z,20.50
2018-07-08T01:10:33.044Z,20.50
2018-07-08T01:13:02.028Z,20.40
2018-07-08T01:15:30.383Z,20.40
2018-07-08T01:17:58.644Z,20.30
2018-07-08T01:20:26.986Z,20.30
2018-07-08T01:22:55.245Z,20.30
2018-07-08T01:25:34.791Z,20.30
2018-07-08T01:28:03.063Z,20.20
2018-07-08T01:30:31.909Z,20.20
2018-07-08T01:33:00.140Z,20.20
2018-07-08T01:35:28.408Z,20.10
2018-07-08T01:40:24.727Z,20.10
2018-07-08T01:42:52.980Z,20.10
2018-07-08T01:45:21.271Z,20.10
2018-07-08T01:47:49.614Z,20.10
2018-07-08T01:52:45.826Z,20.00
2018-07-08T01:55:14.128Z,20.00
2018-07-08T01:57:42.365Z,20.00
2018-07-08T02:00:10.636Z,20.00
2018-07-08T02:02:38.847Z,20.00
2018-07-08T02:05:07.152Z,19.90
2018-07-08T02:07:35.396Z,19.90
2018-07-08T02:10:03.697Z,19.90
2018-07-08T02:12:31.907Z,19.80
2018-07-08T02:15:00.112Z,19.80
2018-07-08T02:17:28.743Z,19.80
2018-07-08T02:19:56.997Z,19.70
2018-07-08T02:22:25.400Z,19.70
2018-07-08T02:24:53.675Z,19.70
2018-07-08T02:27:22.238Z,19.60
2018-07-08T02:29:50.555Z,19.60
2018-07-08T02:32:18.875Z,19.60
2018-07-08T02:34:47.135Z,19.60
2018-07-08T02:37:15.408Z,19.60
2018-07-08T02:39:43.970Z,19.50
2018-07-08T02:42:12.285Z,19.50
2018-07-08T02:44:40.648Z,19.40
2018-07-08T02:47:09.237Z,19.40
2018-07-08T02:49:37.629Z,19.40
2018-07-08T02:52:05.900Z,19.30
2018-07-08T02:54:34.157Z,19.30
2018-07-08T02:57:02.535Z,19.30
2018-07-08T02:59:30.829Z,19.30
2018-07-08T03:01:59.113Z,19.20
2018-07-08T03:04:27.372Z,19.20
2018-07-08T03:06:55.647Z,19.10
2018-07-08T03:09:24.620Z,19.10
2018-07-08T03:11:52.887Z,19.00
2018-07-08T03:14:21.062Z,19.00
2018-07-08T03:16:49.313Z,18.90
2018-07-08T03:19:17.599Z,18.80
2018-07-08T03:21:45.866Z,18.80
2018-07-08T03:24:14.144Z,18.80
2018-07-08T03:26:42.394Z,18.80
2018-07-08T03:29:10.608Z,18.80
2018-07-08T03:31:38.945Z,18.70
2018-07-08T03:34:07.204Z,18.60
2018-07-08T03:36:35.407Z,18.60
2018-07-08T03:39:04.919Z,18.60
2018-07-08T03:41:34.304Z,18.60
2018-07-08T03:44:02.571Z,18.60
2018-07-08T03:46:30.791Z,18.60
2018-07-08T03:48:59.181Z,18.50
2018-07-08T03:51:28.247Z,18.50
2018-07-08T03:53:56.874Z,18.50
2018-07-08T03:56:25.194Z,18.50
2018-07-08T03:58:54.052Z,18.50
2018-07-08T04:01:22.376Z,18.50
2018-07-08T04:03:50.737Z,18.50
2018-07-08T04:06:19.184Z,18.50
2018-07-08T04:08:47.424Z,18.50
2018-07-08T04:11:15.667Z,18.60
2018-07-08T04:13:43.859Z,18.60
2018-07-08T04:16:12.227Z,18.60
2018-07-08T04:18:40.500Z,18.60
2018-07-08T04:21:08.784Z,18.60
2018-07-08T04:23:36.996Z,18.60
2018-07-08T04:26:05.263Z,18.60
2018-07-08T04:28:33.900Z,18.70
2018-07-08T04:31:02.257Z,18.70
2018-07-08T04:33:30.479Z,18.70
2018-07-08T04:35:58.688Z,18.70
2018-07-08T04:38:26.891Z,18.80
2018-07-08T04:40:55.122Z,18.80
2018-07-08T04:43:23.475Z,18.90
2018-07-08T04:45:51.751Z,18.90
2018-07-08T04:48:19.937Z,19.00
2018-07-08T04:50:48.182Z,19.00
2018-07-08T04:53:16.411Z,19.10
2018-07-08T04:55:44.680Z,19.10
2018-07-08T04:58:12.955Z,19.20
2018-07-08T05:00:41.167Z,19.20
2018-07-08T05:03:09.420Z,19.30
2018-07-08T05:05:37.684Z,19.40
2018-07-08T05:08:05.954Z,19.40
2018-07-08T05:10:34.254Z,19.50
2018-07-08T05:13:02.461Z,19.50
2018-07-08T05:15:30.643Z,19.60
2018-07-08T05:17:58.907Z,19.60
2018-07-08T05:22:55.718Z,19.80
2018-07-08T05:25:23.984Z,19.80
2018-07-08T05:27:52.302Z,19.90
2018-07-08T05:30:20.540Z,19.90
2018-07-08T05:32:48.819Z,20.00
2018-07-08T05:35:17.131Z,20.00
2018-07-08T05:37:45.371Z,20.10
2018-07-08T05:40:13.633Z,20.20
2018-07-08T05:42:41.940Z,20.30
2018-07-08T05:45:10.229Z,20.30
2018-07-08T05:47:38.621Z,20.40
2018-07-08T05:50:07.305Z,20.40
2018-07-08T05:52:35.791Z,20.50
2018-07-08T05:55:04.050Z,20.60
2018-07-08T05:57:32.337Z,20.60
2018-07-08T06:00:00.990Z,20.70
2018-07-08T06:02:29.292Z,20.60
2018-07-08T06:04:57.564Z,20.70
2018-07-08T06:09:53.878Z,20.70
2018-07-08T06:12:22.876Z,20.70
2018-07-08T06:14:51.155Z,20.80
2018-07-08T06:17:20.624Z,20.80
2018-07-08T06:19:49.511Z,20.90
2018-07-08T06:24:45.955Z,21.10
2018-07-08T06:27:14.163Z,21.20
2018-07-08T06:29:42.459Z,21.20
2018-07-08T06:32:10.783Z,21.30
2018-07-08T06:34:39.046Z,21.30
2018-07-08T06:37:07.376Z,21.30
2018-07-08T06:39:35.548Z,21.30
2018-07-08T06:42:03.799Z,21.40
2018-07-08T06:44:32.231Z,21.40
2018-07-08T06:47:00.439Z,21.40
2018-07-08T06:49:28.737Z,21.50
2018-07-08T06:51:57.043Z,21.50
2018-07-08T06:54:25.329Z,21.50
2018-07-08T06:56:53.560Z,21.60
2018-07-08T06:59:21.820Z,21.70
2018-07-08T07:01:50.093Z,21.80
2018-07-08T07:04:18.333Z,21.90
2018-07-08T07:06:46.598Z,22.00
2018-07-08T07:09:14.783Z,22.00
2018-07-08T07:11:43.020Z,22.10
2018-07-08T07:14:12.498Z,22.20
2018-07-08T07:16:40.731Z,22.20
2018-07-08T07:19:09.072Z,22.30
2018-07-08T07:21:37.349Z,22.50
2018-07-08T07:24:05.820Z,22.60
2018-07-08T07:29:02.128Z,22.70
2018-07-08T07:31:30.356Z,22.70
2018-07-08T07:36:26.743Z,22.90
2018-07-08T07:38:55.282Z,22.90
2018-07-08T07:41:23.531Z,23.00
2018-07-08T07:43:52.201Z,23.10
2018-07-08T07:46:20.592Z,23.20
2018-07-08T07:48:48.831Z,23.40
2018-07-08T07:51:17.212Z,23.50
2018-07-08T07:53:45.457Z,23.60
2018-07-08T07:56:13.699Z,23.70
2018-07-08T07:58:41.923Z,23.80
2018-07-08T08:01:10.688Z,23.80
2018-07-08T08:03:38.959Z,23.90
2018-07-08T08:06:07.243Z,23.90
2018-07-08T08:08:35.514Z,23.90
2018-07-08T08:11:03.688Z,23.90
2018-07-08T08:13:31.935Z,23.90
2018-07-08T08:16:00.213Z,24.00
2018-07-08T08:18:28.484Z,24.00
2018-07-08T08:20:56.762Z,24.10
2018-07-08T08:23:24.998Z,24.20
2018-07-08T08:25:53.184Z,24.20
2018-07-08T08:28:22.072Z,24.30
2018-07-08T08:30:50.335Z,24.30
2018-07-08T08:33:18.564Z,24.30
2018-07-08T08:35:46.825Z,24.30
2018-07-08T08:38:15.065Z,24.30
2018-07-08T08:40:43.387Z,24.30
2018-07-08T08:43:11.587Z,24.30
2018-07-08T08:45:39.843Z,24.30
2018-07-08T08:48:08.063Z,24.40
2018-07-08T08:50:36.337Z,24.40
2018-07-08T08:53:04.804Z,24.50
2018-07-08T08:55:33.036Z,24.50
2018-07-08T08:58:01.330Z,24.50
2018-07-08T09:02:57.570Z,24.50
2018-07-08T09:05:25.809Z,24.60
2018-07-08T09:07:54.061Z,24.70
2018-07-08T09:10:22.699Z,24.80
2018-07-08T09:12:50.880Z,25.00
2018-07-08T09:15:19.107Z,25.10
2018-07-08T09:17:47.463Z,25.20
2018-07-08T09:20:15.754Z,25.30
2018-07-08T09:22:44.024Z,25.50
2018-07-08T09:25:12.263Z,25.60
2018-07-08T09:27:40.551Z,25.70
2018-07-08T09:30:10.271Z,25.80
2018-07-08T09:32:38.523Z,26.10
2018-07-08T09:35:06.792Z,26.30
2018-07-08T09:37:35.068Z,26.70
2018-07-08T09:40:03.419Z,27.10
2018-07-08T09:42:31.707Z,27.50
2018-07-08T09:44:59.956Z,27.90
2018-07-08T09:47:28.270Z,28.30
2018-07-08T09:49:56.466Z,28.70
2018-07-08T09:52:24.696Z,29.20
2018-07-08T09:54:52.978Z,29.70
2018-07-08T09:57:21.305Z,30.20
2018-07-08T10:02:24.687Z,30.90
2018-07-08T10:04:52.944Z,31.10
2018-07-08T10:07:21.287Z,31.10
2018-07-08T10:09:49.562Z,31.00
2018-07-08T10:12:17.900Z,30.80
2018-07-08T10:14:46.129Z,30.40
2018-07-08T10:17:14.640Z,29.90
2018-07-08T10:19:42.990Z,29.40
2018-07-08T10:22:11.251Z,29.00
2018-07-08T10:24:39.531Z,28.50
2018-07-08T10:28:19.044Z,28.10
2018-07-08T10:30:47.464Z,27.80
2018-07-08T10:33:15.721Z,27.30
2018-07-08T10:35:56.044Z,27.10
2018-07-08T10:38:24.264Z,26.90
2018-07-08T10:40:52.561Z,26.60
2018-07-08T10:43:20.949Z,26.30
2018-07-08T10:45:49.191Z,26.20
2018-07-08T10:50:45.652Z,25.90
2018-07-08T10:53:13.971Z,25.90
2018-07-08T10:55:42.244Z,25.70
2018-07-08T10:58:11.203Z,25.70
2018-07-08T11:03:07.605Z,25.60
2018-07-08T11:05:36.095Z,25.60
2018-07-08T11:08:04.348Z,25.50
2018-07-08T11:10:32.589Z,25.50
2018-07-08T11:13:00.871Z,25.40
2018-07-08T11:15:29.219Z,25.30
2018-07-08T11:17:57.565Z,25.40
2018-07-08T11:20:25.935Z,25.30
2018-07-08T11:22:54.260Z,25.40
2018-07-08T11:25:22.561Z,25.40
2018-07-08T11:27:50.863Z,25.30
2018-07-08T11:30:19.219Z,25.30
2018-07-08T11:32:47.598Z,25.40
2018-07-08T11:35:15.900Z,25.50
2018-07-08T11:37:44.188Z,25.50
2018-07-08T11:40:12.452Z,25.60
2018-07-08T11:42:40.840Z,25.70
2018-07-08T11:45:09.140Z,25.70
2018-07-08T11:47:37.509Z,25.60
2018-07-08T11:50:05.952Z,25.70
2018-07-08T11:52:34.900Z,25.80
2018-07-08T11:55:03.284Z,25.80
2018-07-08T11:57:31.544Z,25.90
2018-07-08T11:59:59.957Z,25.90
2018-07-08T12:02:28.225Z,25.90
2018-07-08T12:04:56.723Z,26.00
2018-07-08T12:07:25.094Z,26.00
2018-07-08T12:09:53.389Z,26.00
2018-07-08T12:12:22.761Z,26.00
2018-07-08T12:14:51.022Z,26.00
2018-07-08T12:17:19.239Z,26.00
2018-07-08T12:19:48.017Z,26.10
2018-07-08T12:22:16.423Z,26.10
2018-07-08T12:24:44.655Z,26.00
2018-07-08T12:27:13.208Z,26.00
2018-07-08T12:29:41.491Z,26.10
2018-07-08T12:34:37.777Z,26.10
2018-07-08T12:37:06.202Z,26.20
2018-07-08T12:39:34.963Z,26.20
2018-07-08T12:42:03.258Z,26.20
2018-07-08T12:44:31.569Z,26.30
2018-07-08T12:47:00.304Z,26.40
2018-07-08T12:49:28.625Z,26.50
2018-07-08T12:51:57.207Z,26.60
2018-07-08T12:54:26.008Z,26.60
2018-07-08T12:56:54.283Z,26.70
2018-07-08T12:59:22.646Z,26.70
2018-07-08T13:01:50.939Z,26.70
2018-07-08T13:04:19.232Z,26.80
2018-07-08T13:06:47.623Z,26.90
2018-07-08T13:09:16.046Z,27.00
2018-07-08T13:11:44.459Z,27.00
2018-07-08T13:14:12.664Z,27.00
2018-07-08T13:16:40.885Z,27.00
2018-07-08T13:19:09.176Z,26.90
2018-07-08T13:21:37.553Z,26.90
2018-07-08T13:24:05.791Z,26.80
2018-07-08T13:26:34.045Z,26.80
2018-07-08T13:29:02.562Z,26.80
2018-07-08T13:31:30.833Z,26.80
2018-07-08T13:33:59.191Z,26.90
2018-07-08T13:36:27.427Z,26.90
2018-07-08T13:38:55.850Z,27.00
2018-07-08T13:41:24.034Z,27.00
2018-07-08T13:43:52.232Z,27.00
2018-07-08T13:46:20.522Z,27.00
2018-07-08T13:48:48.829Z,27.10
2018-07-08T13:51:17.026Z,27.10
2018-07-08T13:53:46.269Z,27.10
2018-07-08T13:56:14.463Z,27.10
2018-07-08T13:58:42.779Z,27.20
2018-07-08T14:01:11.040Z,27.30
2018-07-08T14:06:08.119Z,27.30
2018-07-08T14:08:36.360Z,27.40
2018-07-08T14:11:04.725Z,27.40
2018-07-08T14:13:32.943Z,27.40
2018-07-08T14:16:01.148Z,27.50
2018-07-08T14:18:29.392Z,27.60
2018-07-08T14:20:57.660Z,27.60
2018-07-08T14:23:25.959Z,27.60
2018-07-08T14:25:54.151Z,27.60
2018-07-08T14:28:22.372Z,27.70
2018-07-08T14:30:51.039Z,27.70
2018-07-08T14:33:19.256Z,27.70
2018-07-08T14:35:47.523Z,27.70
2018-07-08T14:38:15.732Z,27.80
2018-07-08T14:40:44.027Z,27.90
2018-07-08T14:43:12.236Z,27.90
2018-07-08T14:45:40.486Z,27.90
2018-07-08T14:48:08.754Z,27.90
2018-07-08T14:50:36.992Z,27.90
2018-07-08T14:53:05.495Z,27.90
2018-07-08T14:55:33.819Z,27.90
2018-07-08T14:58:02.099Z,27.80
2018-07-08T15:00:30.351Z,27.90
2018-07-08T15:02:58.676Z,27.90
2018-07-08T15:07:54.916Z,27.90
2018-07-08T15:10:23.155Z,28.00
2018-07-08T15:12:51.495Z,28.00
2018-07-08T15:15:19.827Z,28.00
2018-07-08T15:17:48.076Z,28.00
2018-07-08T15:20:16.361Z,28.10
2018-07-08T15:22:44.667Z,28.10
2018-07-08T15:25:13.084Z,28.20
2018-07-08T15:27:42.023Z,28.10
2018-07-08T15:30:10.294Z,28.20
2018-07-08T15:32:38.568Z,28.20
2018-07-08T15:35:06.819Z,28.20
2018-07-08T15:37:35.173Z,28.30
2018-07-08T15:40:03.462Z,28.30
2018-07-08T15:42:31.919Z,28.30
2018-07-08T15:45:00.409Z,28.20
2018-07-08T15:47:28.791Z,28.10
2018-07-08T15:49:57.097Z,28.20
2018-07-08T15:52:25.370Z,28.20
2018-07-08T15:54:53.839Z,28.20
2018-07-08T15:57:22.151Z,28.20
2018-07-08T15:59:50.404Z,28.30
2018-07-08T16:02:18.862Z,28.30
2018-07-08T16:04:47.097Z,28.30
2018-07-08T16:07:15.339Z,28.30
2018-07-08T16:09:43.561Z,28.30
2018-07-08T16:12:11.890Z,28.20
2018-07-08T16:14:40.771Z,28.30
2018-07-08T16:17:09.545Z,28.30
2018-07-08T16:19:37.872Z,28.40
2018-07-08T16:22:06.160Z,28.40
2018-07-08T16:24:34.426Z,28.50
2018-07-08T16:27:02.697Z,28.50
2018-07-08T16:29:30.915Z,28.50
2018-07-08T16:31:59.476Z,28.40
2018-07-08T16:34:27.738Z,28.40
2018-07-08T16:36:55.969Z,28.50
2018-07-08T16:39:24.308Z,28.40
2018-07-08T16:41:52.911Z,28.30
2018-07-08T16:44:21.210Z,28.20
2018-07-08T16:46:49.536Z,28.20
2018-07-08T16:51:45.957Z,28.30
2018-07-08T16:54:14.717Z,28.20
2018-07-08T16:56:43.102Z,28.20
2018-07-08T16:59:11.618Z,28.30
2018-07-08T17:01:39.872Z,28.30
2018-07-08T17:04:08.132Z,28.30
2018-07-08T17:06:36.899Z,28.30
2018-07-08T17:09:07.003Z,28.30
2018-07-08T17:11:35.320Z,28.40
2018-07-08T17:14:03.604Z,28.30
2018-07-08T17:16:31.983Z,28.30
2018-07-08T17:19:00.288Z,28.20
2018-07-08T17:21:28.527Z,28.10
2018-07-08T17:23:56.781Z,28.10
2018-07-08T17:26:25.151Z,28.10
2018-07-08T17:28:53.684Z,28.20
2018-07-08T17:31:22.625Z,28.20
2018-07-08T17:33:50.918Z,28.30
2018-07-08T17:36:19.175Z,28.30
2018-07-08T17:38:47.463Z,28.30
2018-07-08T17:41:15.763Z,28.30
2018-07-08T17:43:44.636Z,28.40
2018-07-08T17:46:12.915Z,28.40
2018-07-08T17:48:41.248Z,28.30
2018-07-08T17:51:09.475Z,28.30
2018-07-08T17:53:37.777Z,28.20
2018-07-08T17:56:06.048Z,28.20
2018-07-08T17:58:34.441Z,28.10
2018-07-08T18:01:03.383Z,28.00
2018-07-08T18:03:31.645Z,28.00
2018-07-08T18:05:59.997Z,28.00
2018-07-08T18:08:28.486Z,27.90
2018-07-08T18:10:56.748Z,27.90
2018-07-08T18:13:25.024Z,27.80
2018-07-08T18:15:53.302Z,27.80
2018-07-08T18:18:21.760Z,27.80
2018-07-08T18:20:50.058Z,27.70
2018-07-08T18:23:19.279Z,27.70
2018-07-08T18:25:47.926Z,27.70
2018-07-08T18:28:16.257Z,27.60
2018-07-08T18:30:44.619Z,27.60
2018-07-08T18:33:12.836Z,27.60
2018-07-08T18:35:41.057Z,27.50
2018-07-08T18:38:09.375Z,27.40
2018-07-08T18:40:37.619Z,27.40
2018-07-08T18:43:05.970Z,27.20
2018-07-08T18:45:34.215Z,27.20
2018-07-08T18:48:02.516Z,27.20
2018-07-08T18:50:30.721Z,27.20
2018-07-08T18:52:59.005Z,27.10
2018-07-08T18:55:28.417Z,27.10
2018-07-08T18:57:56.769Z,27.10
2018-07-08T19:00:25.107Z,27.10
2018-07-08T19:02:53.365Z,27.00
2018-07-08T19:05:21.596Z,26.90
2018-07-08T19:07:50.182Z,26.80
2018-07-08T19:10:18.451Z,26.70
2018-07-08T19:12:46.759Z,26.60
2018-07-08T19:15:15.004Z,26.50
2018-07-08T19:17:43.236Z,26.40
2018-07-08T19:20:11.590Z,26.30
2018-07-08T19:22:39.860Z,26.10
2018-07-08T19:25:08.255Z,25.90
2018-07-08T19:27:36.593Z,25.90
2018-07-08T19:30:05.196Z,25.70
2018-07-08T19:35:01.835Z,25.70
2018-07-08T19:37:30.632Z,25.70
2018-07-08T19:39:58.939Z,25.70
2018-07-08T19:42:27.458Z,25.60
2018-07-08T19:44:56.682Z,25.60
2018-07-08T19:47:25.002Z,25.50
2018-07-08T19:49:53.267Z,25.30
2018-07-08T19:54:49.551Z,25.30
2018-07-08T19:57:18.010Z,25.20
2018-07-08T19:59:46.400Z,25.20
2018-07-08T20:02:14.655Z,25.10
2018-07-08T20:04:43.463Z,25.00
2018-07-08T20:09:39.855Z,24.90
2018-07-08T20:12:08.078Z,25.00
2018-07-08T20:14:36.387Z,24.90
2018-07-08T20:17:04.720Z,24.90
2018-07-08T20:19:33.135Z,24.90
2018-07-08T20:22:01.516Z,24.80
2018-07-08T20:24:30.207Z,24.80
2018-07-08T20:26:58.540Z,24.70
2018-07-08T20:29:26.793Z,24.80
2018-07-08T20:31:55.079Z,24.80
2018-07-08T20:34:23.427Z,24.80
2018-07-08T20:36:52.366Z,24.70
2018-07-08T20:39:20.654Z,24.70
2018-07-08T20:41:48.950Z,24.70
2018-07-08T20:44:17.328Z,24.70
2018-07-08T20:46:45.734Z,24.60
2018-07-08T20:49:14.284Z,24.60
2018-07-08T20:51:42.608Z,24.60
2018-07-08T20:54:10.952Z,24.50
2018-07-08T20:56:39.250Z,24.50
2018-07-08T20:59:07.580Z,24.50
2018-07-08T21:01:35.933Z,24.40
2018-07-08T21:04:04.217Z,24.40
2018-07-08T21:06:32.510Z,24.30
2018-07-08T21:09:00.903Z,24.30
2018-07-08T21:11:29.799Z,24.20
2018-07-08T21:13:58.120Z,24.20
2018-07-08T21:16:26.406Z,24.20
2018-07-08T21:18:54.776Z,24.10
2018-07-08T21:21:24.436Z,24.10
2018-07-08T21:23:52.782Z,24.10
2018-07-08T21:26:21.579Z,24.00
2018-07-08T21:28:49.942Z,24.00
2018-07-08T21:31:18.246Z,24.00
2018-07-08T21:33:46.701Z,23.90
2018-07-08T21:38:43.696Z,23.90
2018-07-08T21:41:12.270Z,23.90
2018-07-08T21:43:40.579Z,23.90
2018-07-08T21:46:08.939Z,23.80
2018-07-08T21:48:37.285Z,23.80
2018-07-08T21:51:05.715Z,23.80
2018-07-08T21:53:33.991Z,23.70
2018-07-08T21:56:02.292Z,23.60
2018-07-08T21:58:30.560Z,23.60
2018-07-08T22:01:11.412Z,23.60
2018-07-08T22:03:40.492Z,23.50
2018-07-08T22:06:08.772Z,23.50
2018-07-08T22:08:37.103Z,23.50
2018-07-08T22:11:06.940Z,23.50
2018-07-08T22:13:35.721Z,23.40
2018-07-08T22:16:04.309Z,23.40
2018-07-08T22:18:33.168Z,23.40
2018-07-08T22:21:01.879Z,23.40
2018-07-08T22:23:30.343Z,23.40
2018-07-08T22:25:59.090Z,23.30
2018-07-08T22:28:27.336Z,23.30
2018-07-08T22:30:55.660Z,23.30
2018-07-08T22:33:23.895Z,23.30
2018-07-08T22:35:52.251Z,23.30
2018-07-08T22:38:20.563Z,23.30
2018-07-08T22:40:49.442Z,23.30
2018-07-08T22:43:17.692Z,23.30
2018-07-08T22:45:46.342Z,23.30
2018-07-08T22:48:14.604Z,23.30
2018-07-08T22:50:42.976Z,23.30
2018-07-08T22:53:11.185Z,23.30
2018-07-08T22:55:39.405Z,23.20
2018-07-08T22:58:07.653Z,23.20
2018-07-08T23:00:47.382Z,23.20
2018-07-08T23:03:34.832Z,23.20
2018-07-08T23:06:03.147Z,23.10
2018-07-08T23:08:31.384Z,23.10
2018-07-08T23:10:59.718Z,23.00
2018-07-08T23:13:28.005Z,23.00
2018-07-08T23:15:56.366Z,22.90
2018-07-08T23:18:24.649Z,22.90
2018-07-08T23:20:52.904Z,22.80
2018-07-08T23:23:21.268Z,22.80
2018-07-08T23:25:49.575Z,22.70
2018-07-08T23:28:17.817Z,22.70
2018-07-08T23:30:46.129Z,22.70
2018-07-08T23:33:15.046Z,22.60
2018-07-08T23:38:11.427Z,22.50
2018-07-08T23:40:39.738Z,22.50
2018-07-08T23:43:08.173Z,22.50
2018-07-08T23:45:36.488Z,22.50
2018-07-08T23:48:06.217Z,22.50
2018-07-08T23:50:34.485Z,22.50
2018-07-08T23:53:02.736Z,22.40
2018-07-08T23:55:30.982Z,22.40
2018-07-08T23:57:59.326Z,22.40
